sensor_id;sensor_type;location;lat;lon;timestamp;P1;durP1;ratioP1;P2;durP2;ratioP2
73264;SDS011;61493;51.008;14.088;2023-02-28T00:00:30;6.33;;;3.77;;
73264;SDS011;61493;51.008;14.088;2023-02-28T00:02:56;11.73;;;4.60;;
73264;SDS011;61493;51.008;14.088;2023-02-28T00:05:22;7.60;;;3.60;;
73264;SDS011;61493;51.008;14.088;2023-02-28T00:07:48;7.57;;;4.17;;
73264;SDS011;61493;51.008;14.088;2023-02-28T00:10:14;10.10;;;4.40;;
73264;SDS011;61493;51.008;14.088;2023-02-28T00:12:40;9.77;;;4.10;;
73264;SDS011;61493;51.008;14.088;2023-02-28T00:15:05;8.87;;;3.87;;
73264;SDS011;61493;51.008;14.088;2023-02-28T00:17:31;5.17;;;3.37;;
73264;SDS011;61493;51.008;14.088;2023-02-28T00:19:56;7.38;;;5.28;;
73264;SDS011;61493;51.008;14.088;2023-02-28T00:22:21;10.20;;;4.73;;
73264;SDS011;61493;51.008;14.088;2023-02-28T00:24:47;13.27;;;5.90;;
73264;SDS011;61493;51.008;14.088;2023-02-28T00:27:12;10.27;;;5.57;;
73264;SDS011;61493;51.008;14.088;2023-02-28T00:29:38;9.47;;;4.37;;
73264;SDS011;61493;51.008;14.088;2023-02-28T00:32:03;6.43;;;4.20;;
73264;SDS011;61493;51.008;14.088;2023-02-28T00:34:29;7.93;;;3.70;;
73264;SDS011;61493;51.008;14.088;2023-02-28T00:36:54;14.83;;;5.13;;
73264;SDS011;61493;51.008;14.088;2023-02-28T00:39:19;10.27;;;3.33;;
73264;SDS011;61493;51.008;14.088;2023-02-28T00:41:44;9.57;;;4.00;;
73264;SDS011;61493;51.008;14.088;2023-02-28T00:44:09;9.07;;;4.35;;
73264;SDS011;61493;51.008;14.088;2023-02-28T00:46:35;6.93;;;3.27;;
73264;SDS011;61493;51.008;14.088;2023-02-28T00:49:00;9.53;;;4.77;;
73264;SDS011;61493;51.008;14.088;2023-02-28T00:51:25;8.37;;;4.23;;
73264;SDS011;61493;51.008;14.088;2023-02-28T00:53:50;8.10;;;4.33;;
73264;SDS011;61493;51.008;14.088;2023-02-28T00:56:15;11.30;;;4.43;;
73264;SDS011;61493;51.008;14.088;2023-02-28T00:58:41;8.53;;;4.93;;
73264;SDS011;61493;51.008;14.088;2023-02-28T01:01:06;12.07;;;5.37;;
73264;SDS011;61493;51.008;14.088;2023-02-28T01:03:31;8.60;;;4.03;;
73264;SDS011;61493;51.008;14.088;2023-02-28T01:05:56;9.37;;;4.03;;
73264;SDS011;61493;51.008;14.088;2023-02-28T01:08:21;8.73;;;4.43;;
73264;SDS011;61493;51.008;14.088;2023-02-28T01:10:46;9.73;;;4.77;;
73264;SDS011;61493;51.008;14.088;2023-02-28T01:13:12;13.07;;;5.33;;
73264;SDS011;61493;51.008;14.088;2023-02-28T01:15:38;8.20;;;4.37;;
73264;SDS011;61493;51.008;14.088;2023-02-28T01:18:08;7.97;;;3.93;;
73264;SDS011;61493;51.008;14.088;2023-02-28T01:20:33;8.18;;;4.03;;
73264;SDS011;61493;51.008;14.088;2023-02-28T01:23:00;8.77;;;4.03;;
73264;SDS011;61493;51.008;14.088;2023-02-28T01:25:25;8.05;;;4.38;;
73264;SDS011;61493;51.008;14.088;2023-02-28T01:27:51;8.65;;;4.75;;
73264;SDS011;61493;51.008;14.088;2023-02-28T01:30:17;12.03;;;4.60;;
73264;SDS011;61493;51.008;14.088;2023-02-28T01:32:42;9.63;;;4.73;;
73264;SDS011;61493;51.008;14.088;2023-02-28T01:35:07;9.13;;;4.65;;
73264;SDS011;61493;51.008;14.088;2023-02-28T01:37:32;10.13;;;4.83;;
73264;SDS011;61493;51.008;14.088;2023-02-28T01:39:58;15.30;;;5.50;;
73264;SDS011;61493;51.008;14.088;2023-02-28T01:42:23;5.90;;;4.33;;
73264;SDS011;61493;51.008;14.088;2023-02-28T01:47:23;13.97;;;5.03;;
73264;SDS011;61493;51.008;14.088;2023-02-28T01:49:49;8.10;;;4.57;;
73264;SDS011;61493;51.008;14.088;2023-02-28T01:52:16;10.13;;;5.07;;
73264;SDS011;61493;51.008;14.088;2023-02-28T01:54:43;11.60;;;5.13;;
73264;SDS011;61493;51.008;14.088;2023-02-28T01:57:12;13.50;;;5.73;;
73264;SDS011;61493;51.008;14.088;2023-02-28T01:59:48;11.50;;;4.67;;
73264;SDS011;61493;51.008;14.088;2023-02-28T02:02:16;9.17;;;4.23;;
73264;SDS011;61493;51.008;14.088;2023-02-28T02:04:46;8.30;;;4.03;;
73264;SDS011;61493;51.008;14.088;2023-02-28T02:07:14;7.65;;;4.18;;
73264;SDS011;61493;51.008;14.088;2023-02-28T02:09:43;10.90;;;4.83;;
73264;SDS011;61493;51.008;14.088;2023-02-28T02:12:21;8.48;;;3.78;;
73264;SDS011;61493;51.008;14.088;2023-02-28T02:17:16;8.48;;;4.05;;
73264;SDS011;61493;51.008;14.088;2023-02-28T02:19:50;9.17;;;4.80;;
73264;SDS011;61493;51.008;14.088;2023-02-28T02:28:08;8.33;;;4.57;;
73264;SDS011;61493;51.008;14.088;2023-02-28T02:38:04;9.50;;;4.47;;
73264;SDS011;61493;51.008;14.088;2023-02-28T02:43:29;10.23;;;4.10;;
73264;SDS011;61493;51.008;14.088;2023-02-28T02:46:02;13.10;;;4.77;;
73264;SDS011;61493;51.008;14.088;2023-02-28T02:48:30;11.77;;;5.23;;
73264;SDS011;61493;51.008;14.088;2023-02-28T02:50:58;9.93;;;5.17;;
73264;SDS011;61493;51.008;14.088;2023-02-28T02:53:26;8.43;;;4.53;;
73264;SDS011;61493;51.008;14.088;2023-02-28T02:55:53;11.63;;;5.73;;
73264;SDS011;61493;51.008;14.088;2023-02-28T02:58:20;12.27;;;5.37;;
73264;SDS011;61493;51.008;14.088;2023-02-28T03:01:02;10.03;;;5.37;;
73264;SDS011;61493;51.008;14.088;2023-02-28T03:03:31;12.63;;;5.57;;
73264;SDS011;61493;51.008;14.088;2023-02-28T03:05:57;13.60;;;5.13;;
73264;SDS011;61493;51.008;14.088;2023-02-28T03:08:23;11.17;;;5.27;;
73264;SDS011;61493;51.008;14.088;2023-02-28T03:10:49;11.63;;;5.27;;
73264;SDS011;61493;51.008;14.088;2023-02-28T03:16:23;15.60;;;6.30;;
73264;SDS011;61493;51.008;14.088;2023-02-28T03:21:40;13.43;;;6.27;;
73264;SDS011;61493;51.008;14.088;2023-02-28T03:24:11;10.10;;;5.07;;
73264;SDS011;61493;51.008;14.088;2023-02-28T03:26:41;9.57;;;5.50;;
73264;SDS011;61493;51.008;14.088;2023-02-28T03:29:12;11.90;;;4.73;;
73264;SDS011;61493;51.008;14.088;2023-02-28T03:31:48;9.07;;;5.13;;
73264;SDS011;61493;51.008;14.088;2023-02-28T03:34:32;10.48;;;5.18;;
73264;SDS011;61493;51.008;14.088;2023-02-28T03:36:59;15.55;;;4.55;;
73264;SDS011;61493;51.008;14.088;2023-02-28T03:41:52;16.63;;;5.60;;
73264;SDS011;61493;51.008;14.088;2023-02-28T03:44:22;10.30;;;5.70;;
73264;SDS011;61493;51.008;14.088;2023-02-28T03:46:59;12.37;;;5.30;;
73264;SDS011;61493;51.008;14.088;2023-02-28T03:49:27;9.37;;;5.77;;
73264;SDS011;61493;51.008;14.088;2023-02-28T03:51:53;13.40;;;5.37;;
73264;SDS011;61493;51.008;14.088;2023-02-28T03:54:21;14.70;;;5.17;;
73264;SDS011;61493;51.008;14.088;2023-02-28T03:56:50;13.73;;;6.00;;
73264;SDS011;61493;51.008;14.088;2023-02-28T03:59:37;11.00;;;5.43;;
73264;SDS011;61493;51.008;14.088;2023-02-28T04:02:03;10.53;;;5.20;;
73264;SDS011;61493;51.008;14.088;2023-02-28T04:04:29;11.17;;;4.87;;
73264;SDS011;61493;51.008;14.088;2023-02-28T04:07:00;9.83;;;4.03;;
73264;SDS011;61493;51.008;14.088;2023-02-28T04:09:26;6.75;;;3.83;;
73264;SDS011;61493;51.008;14.088;2023-02-28T04:11:53;10.10;;;3.90;;
73264;SDS011;61493;51.008;14.088;2023-02-28T04:14:20;8.40;;;3.97;;
73264;SDS011;61493;51.008;14.088;2023-02-28T04:16:46;12.03;;;5.57;;
73264;SDS011;61493;51.008;14.088;2023-02-28T04:19:11;10.27;;;4.90;;
73264;SDS011;61493;51.008;14.088;2023-02-28T04:21:41;10.07;;;4.10;;
73264;SDS011;61493;51.008;14.088;2023-02-28T04:24:16;6.83;;;4.67;;
73264;SDS011;61493;51.008;14.088;2023-02-28T04:26:43;8.80;;;4.43;;
73264;SDS011;61493;51.008;14.088;2023-02-28T04:29:09;4.97;;;3.23;;
73264;SDS011;61493;51.008;14.088;2023-02-28T04:31:34;9.73;;;4.07;;
73264;SDS011;61493;51.008;14.088;2023-02-28T04:34:00;8.90;;;4.37;;
73264;SDS011;61493;51.008;14.088;2023-02-28T04:36:31;11.43;;;4.97;;
73264;SDS011;61493;51.008;14.088;2023-02-28T04:39:00;9.60;;;4.67;;
73264;SDS011;61493;51.008;14.088;2023-02-28T04:41:28;12.03;;;4.07;;
73264;SDS011;61493;51.008;14.088;2023-02-28T04:43:53;11.80;;;6.17;;
73264;SDS011;61493;51.008;14.088;2023-02-28T04:46:19;10.50;;;5.80;;
73264;SDS011;61493;51.008;14.088;2023-02-28T04:48:44;12.33;;;6.70;;
73264;SDS011;61493;51.008;14.088;2023-02-28T04:51:11;14.10;;;6.10;;
73264;SDS011;61493;51.008;14.088;2023-02-28T04:53:37;15.53;;;4.73;;
73264;SDS011;61493;51.008;14.088;2023-02-28T04:56:03;5.93;;;3.80;;
73264;SDS011;61493;51.008;14.088;2023-02-28T04:58:29;9.63;;;4.60;;
73264;SDS011;61493;51.008;14.088;2023-02-28T05:01:00;9.13;;;3.73;;
73264;SDS011;61493;51.008;14.088;2023-02-28T05:03:26;6.97;;;3.90;;
73264;SDS011;61493;51.008;14.088;2023-02-28T05:05:51;9.37;;;5.13;;
73264;SDS011;61493;51.008;14.088;2023-02-28T05:08:16;6.68;;;3.47;;
73264;SDS011;61493;51.008;14.088;2023-02-28T05:10:44;7.30;;;3.88;;
73264;SDS011;61493;51.008;14.088;2023-02-28T05:13:12;7.33;;;4.63;;
73264;SDS011;61493;51.008;14.088;2023-02-28T05:15:37;11.13;;;5.20;;
73264;SDS011;61493;51.008;14.088;2023-02-28T05:18:02;7.97;;;4.37;;
73264;SDS011;61493;51.008;14.088;2023-02-28T05:20:28;10.40;;;4.43;;
73264;SDS011;61493;51.008;14.088;2023-02-28T05:22:53;5.13;;;3.33;;
73264;SDS011;61493;51.008;14.088;2023-02-28T05:25:19;8.53;;;3.10;;
73264;SDS011;61493;51.008;14.088;2023-02-28T05:27:47;5.47;;;3.37;;
73264;SDS011;61493;51.008;14.088;2023-02-28T05:30:12;7.30;;;5.03;;
73264;SDS011;61493;51.008;14.088;2023-02-28T05:32:38;8.43;;;4.33;;
73264;SDS011;61493;51.008;14.088;2023-02-28T05:35:04;10.93;;;5.73;;
73264;SDS011;61493;51.008;14.088;2023-02-28T05:37:29;9.60;;;4.53;;
73264;SDS011;61493;51.008;14.088;2023-02-28T05:39:54;10.37;;;5.17;;
73264;SDS011;61493;51.008;14.088;2023-02-28T05:42:20;6.73;;;3.77;;
73264;SDS011;61493;51.008;14.088;2023-02-28T05:44:45;6.05;;;2.88;;
73264;SDS011;61493;51.008;14.088;2023-02-28T05:47:10;10.43;;;5.30;;
73264;SDS011;61493;51.008;14.088;2023-02-28T05:49:40;8.00;;;3.33;;
73264;SDS011;61493;51.008;14.088;2023-02-28T05:52:07;11.63;;;4.97;;
73264;SDS011;61493;51.008;14.088;2023-02-28T05:54:32;8.70;;;5.63;;
73264;SDS011;61493;51.008;14.088;2023-02-28T05:56:57;3.93;;;3.17;;
73264;SDS011;61493;51.008;14.088;2023-02-28T05:59:22;8.27;;;4.67;;
73264;SDS011;61493;51.008;14.088;2023-02-28T06:01:47;12.17;;;5.40;;
73264;SDS011;61493;51.008;14.088;2023-02-28T06:04:13;10.17;;;4.40;;
73264;SDS011;61493;51.008;14.088;2023-02-28T06:06:42;7.57;;;4.40;;
73264;SDS011;61493;51.008;14.088;2023-02-28T06:09:07;7.47;;;4.30;;
73264;SDS011;61493;51.008;14.088;2023-02-28T06:11:33;13.97;;;5.43;;
73264;SDS011;61493;51.008;14.088;2023-02-28T06:13:58;9.03;;;4.80;;
73264;SDS011;61493;51.008;14.088;2023-02-28T06:16:27;10.00;;;4.97;;
73264;SDS011;61493;51.008;14.088;2023-02-28T06:18:53;11.53;;;4.83;;
73264;SDS011;61493;51.008;14.088;2023-02-28T06:21:20;12.57;;;4.60;;
73264;SDS011;61493;51.008;14.088;2023-02-28T06:23:46;9.07;;;5.07;;
73264;SDS011;61493;51.008;14.088;2023-02-28T06:26:11;11.83;;;5.03;;
73264;SDS011;61493;51.008;14.088;2023-02-28T06:28:36;10.50;;;5.33;;
73264;SDS011;61493;51.008;14.088;2023-02-28T06:31:11;11.50;;;7.23;;
73264;SDS011;61493;51.008;14.088;2023-02-28T06:33:37;11.60;;;6.97;;
73264;SDS011;61493;51.008;14.088;2023-02-28T06:36:03;15.53;;;8.47;;
73264;SDS011;61493;51.008;14.088;2023-02-28T06:38:28;14.70;;;6.03;;
73264;SDS011;61493;51.008;14.088;2023-02-28T06:40:54;11.50;;;6.03;;
73264;SDS011;61493;51.008;14.088;2023-02-28T06:43:19;10.67;;;5.10;;
73264;SDS011;61493;51.008;14.088;2023-02-28T06:45:44;11.50;;;5.93;;
73264;SDS011;61493;51.008;14.088;2023-02-28T06:48:09;16.13;;;8.37;;
73264;SDS011;61493;51.008;14.088;2023-02-28T06:50:35;13.17;;;6.93;;
73264;SDS011;61493;51.008;14.088;2023-02-28T06:53:00;14.63;;;6.70;;
73264;SDS011;61493;51.008;14.088;2023-02-28T06:55:25;25.27;;;9.80;;
73264;SDS011;61493;51.008;14.088;2023-02-28T06:57:51;23.03;;;11.73;;
73264;SDS011;61493;51.008;14.088;2023-02-28T07:00:16;20.17;;;10.43;;
73264;SDS011;61493;51.008;14.088;2023-02-28T07:02:41;13.07;;;7.10;;
73264;SDS011;61493;51.008;14.088;2023-02-28T07:05:06;12.13;;;6.50;;
73264;SDS011;61493;51.008;14.088;2023-02-28T07:07:32;7.60;;;4.53;;
73264;SDS011;61493;51.008;14.088;2023-02-28T07:09:57;10.40;;;5.00;;
73264;SDS011;61493;51.008;14.088;2023-02-28T07:12:22;11.17;;;5.13;;
73264;SDS011;61493;51.008;14.088;2023-02-28T07:14:47;10.67;;;5.50;;
73264;SDS011;61493;51.008;14.088;2023-02-28T07:17:15;10.50;;;5.53;;
73264;SDS011;61493;51.008;14.088;2023-02-28T07:19:40;9.43;;;4.77;;
73264;SDS011;61493;51.008;14.088;2023-02-28T07:22:06;11.00;;;5.05;;
73264;SDS011;61493;51.008;14.088;2023-02-28T07:24:31;18.13;;;9.25;;
73264;SDS011;61493;51.008;14.088;2023-02-28T07:26:57;9.98;;;5.82;;
73264;SDS011;61493;51.008;14.088;2023-02-28T07:29:22;12.05;;;5.65;;
73264;SDS011;61493;51.008;14.088;2023-02-28T07:31:47;9.00;;;4.38;;
73264;SDS011;61493;51.008;14.088;2023-02-28T07:34:13;9.68;;;4.85;;
73264;SDS011;61493;51.008;14.088;2023-02-28T07:36:38;8.88;;;5.13;;
73264;SDS011;61493;51.008;14.088;2023-02-28T07:39:03;10.25;;;5.45;;
73264;SDS011;61493;51.008;14.088;2023-02-28T07:41:29;11.77;;;7.38;;
73264;SDS011;61493;51.008;14.088;2023-02-28T07:43:54;16.77;;;10.02;;
73264;SDS011;61493;51.008;14.088;2023-02-28T07:46:20;16.27;;;10.00;;
73264;SDS011;61493;51.008;14.088;2023-02-28T07:48:46;18.15;;;9.18;;
73264;SDS011;61493;51.008;14.088;2023-02-28T07:51:11;13.85;;;7.00;;
73264;SDS011;61493;51.008;14.088;2023-02-28T07:53:37;9.68;;;4.85;;
73264;SDS011;61493;51.008;14.088;2023-02-28T07:56:02;12.05;;;6.75;;
73264;SDS011;61493;51.008;14.088;2023-02-28T07:58:29;13.68;;;8.40;;
73264;SDS011;61493;51.008;14.088;2023-02-28T08:00:54;12.70;;;5.43;;
73264;SDS011;61493;51.008;14.088;2023-02-28T08:03:20;12.68;;;8.55;;
73264;SDS011;61493;51.008;14.088;2023-02-28T08:05:45;18.50;;;13.48;;
73264;SDS011;61493;51.008;14.088;2023-02-28T08:08:10;18.33;;;11.38;;
73264;SDS011;61493;51.008;14.088;2023-02-28T08:10:36;16.10;;;10.35;;
73264;SDS011;61493;51.008;14.088;2023-02-28T08:13:01;11.70;;;6.28;;
73264;SDS011;61493;51.008;14.088;2023-02-28T08:15:26;8.20;;;4.56;;
73264;SDS011;61493;51.008;14.088;2023-02-28T08:17:51;13.95;;;5.75;;
73264;SDS011;61493;51.008;14.088;2023-02-28T08:20:16;12.16;;;6.14;;
73264;SDS011;61493;51.008;14.088;2023-02-28T08:22:42;10.70;;;5.43;;
73264;SDS011;61493;51.008;14.088;2023-02-28T08:25:07;10.65;;;6.15;;
73264;SDS011;61493;51.008;14.088;2023-02-28T08:27:32;13.25;;;6.32;;
73264;SDS011;61493;51.008;14.088;2023-02-28T08:29:58;14.68;;;5.65;;
73264;SDS011;61493;51.008;14.088;2023-02-28T08:32:23;9.90;;;5.70;;
73264;SDS011;61493;51.008;14.088;2023-02-28T08:34:48;8.15;;;5.38;;
73264;SDS011;61493;51.008;14.088;2023-02-28T08:37:13;11.48;;;5.50;;
73264;SDS011;61493;51.008;14.088;2023-02-28T08:39:39;13.68;;;8.32;;
73264;SDS011;61493;51.008;14.088;2023-02-28T08:42:04;11.85;;;6.30;;
73264;SDS011;61493;51.008;14.088;2023-02-28T08:44:29;9.40;;;4.93;;
73264;SDS011;61493;51.008;14.088;2023-02-28T08:46:54;10.15;;;6.13;;
73264;SDS011;61493;51.008;14.088;2023-02-28T08:49:19;12.23;;;6.82;;
73264;SDS011;61493;51.008;14.088;2023-02-28T08:51:48;9.45;;;5.60;;
73264;SDS011;61493;51.008;14.088;2023-02-28T08:54:13;9.15;;;5.03;;
73264;SDS011;61493;51.008;14.088;2023-02-28T08:56:40;10.05;;;5.60;;
73264;SDS011;61493;51.008;14.088;2023-02-28T08:59:06;12.63;;;6.45;;
73264;SDS011;61493;51.008;14.088;2023-02-28T09:01:31;8.65;;;5.10;;
73264;SDS011;61493;51.008;14.088;2023-02-28T09:03:56;10.68;;;6.30;;
73264;SDS011;61493;51.008;14.088;2023-02-28T09:06:23;8.65;;;4.50;;
73264;SDS011;61493;51.008;14.088;2023-02-28T09:08:49;9.35;;;5.00;;
73264;SDS011;61493;51.008;14.088;2023-02-28T09:11:14;12.20;;;6.50;;
73264;SDS011;61493;51.008;14.088;2023-02-28T09:13:40;9.15;;;5.30;;
73264;SDS011;61493;51.008;14.088;2023-02-28T09:16:06;10.83;;;5.57;;
73264;SDS011;61493;51.008;14.088;2023-02-28T09:18:33;11.35;;;5.70;;
73264;SDS011;61493;51.008;14.088;2023-02-28T09:20:58;6.93;;;5.00;;
73264;SDS011;61493;51.008;14.088;2023-02-28T09:23:24;10.77;;;6.50;;
73264;SDS011;61493;51.008;14.088;2023-02-28T09:25:50;11.93;;;6.20;;
73264;SDS011;61493;51.008;14.088;2023-02-28T09:28:16;10.32;;;5.60;;
73264;SDS011;61493;51.008;14.088;2023-02-28T09:30:41;8.32;;;5.72;;
73264;SDS011;61493;51.008;14.088;2023-02-28T09:33:07;10.55;;;5.78;;
73264;SDS011;61493;51.008;14.088;2023-02-28T09:35:33;11.10;;;6.95;;
73264;SDS011;61493;51.008;14.088;2023-02-28T09:37:58;8.98;;;6.22;;
73264;SDS011;61493;51.008;14.088;2023-02-28T09:40:24;8.57;;;5.90;;
73264;SDS011;61493;51.008;14.088;2023-02-28T09:42:57;13.32;;;8.52;;
73264;SDS011;61493;51.008;14.088;2023-02-28T09:45:24;9.23;;;6.55;;
73264;SDS011;61493;51.008;14.088;2023-02-28T09:47:52;11.38;;;6.70;;
73264;SDS011;61493;51.008;14.088;2023-02-28T09:52:50;7.80;;;5.28;;
73264;SDS011;61493;51.008;14.088;2023-02-28T09:55:19;9.45;;;5.85;;
73264;SDS011;61493;51.008;14.088;2023-02-28T09:57:44;13.30;;;6.90;;
73264;SDS011;61493;51.008;14.088;2023-02-28T10:00:15;10.43;;;6.32;;
73264;SDS011;61493;51.008;14.088;2023-02-28T10:03:01;8.85;;;5.93;;
73264;SDS011;61493;51.008;14.088;2023-02-28T10:08:00;12.43;;;4.90;;
73264;SDS011;61493;51.008;14.088;2023-02-28T10:12:58;8.80;;;4.93;;
73264;SDS011;61493;51.008;14.088;2023-02-28T10:15:25;9.35;;;5.25;;
73264;SDS011;61493;51.008;14.088;2023-02-28T10:17:53;9.75;;;5.57;;
73264;SDS011;61493;51.008;14.088;2023-02-28T10:20:19;9.45;;;5.85;;
73264;SDS011;61493;51.008;14.088;2023-02-28T10:25:24;11.38;;;5.00;;
73264;SDS011;61493;51.008;14.088;2023-02-28T10:27:52;8.98;;;4.70;;
73264;SDS011;61493;51.008;14.088;2023-02-28T10:30:21;8.70;;;4.70;;
73264;SDS011;61493;51.008;14.088;2023-02-28T10:32:48;9.50;;;5.32;;
73264;SDS011;61493;51.008;14.088;2023-02-28T10:35:16;8.57;;;4.35;;
73264;SDS011;61493;51.008;14.088;2023-02-28T10:37:42;8.85;;;4.90;;
73264;SDS011;61493;51.008;14.088;2023-02-28T10:40:25;8.80;;;4.78;;
73264;SDS011;61493;51.008;14.088;2023-02-28T10:43:01;8.02;;;5.18;;
73264;SDS011;61493;51.008;14.088;2023-02-28T10:45:33;10.85;;;5.15;;
73264;SDS011;61493;51.008;14.088;2023-02-28T10:48:02;7.35;;;4.45;;
73264;SDS011;61493;51.008;14.088;2023-02-28T10:50:31;9.60;;;5.47;;
73264;SDS011;61493;51.008;14.088;2023-02-28T10:53:05;7.43;;;5.15;;
73264;SDS011;61493;51.008;14.088;2023-02-28T10:55:31;9.93;;;6.78;;
73264;SDS011;61493;51.008;14.088;2023-02-28T10:57:56;7.90;;;4.80;;
73264;SDS011;61493;51.008;14.088;2023-02-28T11:00:23;8.63;;;5.38;;
73264;SDS011;61493;51.008;14.088;2023-02-28T11:02:50;7.32;;;5.57;;
73264;SDS011;61493;51.008;14.088;2023-02-28T11:07:53;7.20;;;4.75;;
73264;SDS011;61493;51.008;14.088;2023-02-28T11:10:25;7.43;;;4.57;;
73264;SDS011;61493;51.008;14.088;2023-02-28T11:13:05;7.78;;;5.18;;
73264;SDS011;61493;51.008;14.088;2023-02-28T11:15:31;7.88;;;4.60;;
73264;SDS011;61493;51.008;14.088;2023-02-28T11:17:58;7.15;;;5.03;;
73264;SDS011;61493;51.008;14.088;2023-02-28T11:20:25;10.90;;;4.95;;
73264;SDS011;61493;51.008;14.088;2023-02-28T11:22:51;7.93;;;4.85;;
73264;SDS011;61493;51.008;14.088;2023-02-28T11:25:21;9.05;;;4.90;;
73264;SDS011;61493;51.008;14.088;2023-02-28T11:27:48;7.43;;;5.13;;
73264;SDS011;61493;51.008;14.088;2023-02-28T11:32:51;8.27;;;5.45;;
73264;SDS011;61493;51.008;14.088;2023-02-28T11:35:18;11.88;;;6.32;;
73264;SDS011;61493;51.008;14.088;2023-02-28T11:37:47;9.68;;;5.55;;
73264;SDS011;61493;51.008;14.088;2023-02-28T11:40:13;7.90;;;4.90;;
73264;SDS011;61493;51.008;14.088;2023-02-28T11:45:11;6.43;;;5.18;;
73264;SDS011;61493;51.008;14.088;2023-02-28T11:50:31;8.60;;;5.05;;
73264;SDS011;61493;51.008;14.088;2023-02-28T11:53:02;9.70;;;5.15;;
73264;SDS011;61493;51.008;14.088;2023-02-28T11:55:42;17.63;;;5.80;;
73264;SDS011;61493;51.008;14.088;2023-02-28T11:58:16;8.18;;;4.50;;
73264;SDS011;61493;51.008;14.088;2023-02-28T12:03:14;10.48;;;5.07;;
73264;SDS011;61493;51.008;14.088;2023-02-28T12:05:50;13.45;;;6.50;;
73264;SDS011;61493;51.008;14.088;2023-02-28T12:16:13;7.63;;;5.35;;
73264;SDS011;61493;51.008;14.088;2023-02-28T12:21:17;9.30;;;5.15;;
73264;SDS011;61493;51.008;14.088;2023-02-28T12:27:13;8.10;;;5.50;;
73264;SDS011;61493;51.008;14.088;2023-02-28T12:29:47;9.98;;;6.70;;
73264;SDS011;61493;51.008;14.088;2023-02-28T12:32:19;10.13;;;6.32;;
73264;SDS011;61493;51.008;14.088;2023-02-28T12:34:55;9.32;;;6.05;;
73264;SDS011;61493;51.008;14.088;2023-02-28T12:37:25;12.45;;;7.40;;
73264;SDS011;61493;51.008;14.088;2023-02-28T12:39:55;12.23;;;7.03;;
73264;SDS011;61493;51.008;14.088;2023-02-28T12:42:26;11.50;;;7.40;;
73264;SDS011;61493;51.008;14.088;2023-02-28T12:44:54;10.52;;;6.47;;
73264;SDS011;61493;51.008;14.088;2023-02-28T12:47:21;9.55;;;6.28;;
73264;SDS011;61493;51.008;14.088;2023-02-28T12:52:12;9.20;;;5.78;;
73264;SDS011;61493;51.008;14.088;2023-02-28T12:54:47;10.02;;;6.57;;
73264;SDS011;61493;51.008;14.088;2023-02-28T12:58:01;12.93;;;8.75;;
73264;SDS011;61493;51.008;14.088;2023-02-28T13:00:13;12.10;;;7.07;;
73264;SDS011;61493;51.008;14.088;2023-02-28T13:10:23;11.93;;;7.28;;
73264;SDS011;61493;51.008;14.088;2023-02-28T13:12:49;9.35;;;6.53;;
73264;SDS011;61493;51.008;14.088;2023-02-28T13:15:19;14.07;;;6.55;;
73264;SDS011;61493;51.008;14.088;2023-02-28T13:17:50;14.55;;;8.02;;
73264;SDS011;61493;51.008;14.088;2023-02-28T13:20:20;17.85;;;8.13;;
73264;SDS011;61493;51.008;14.088;2023-02-28T13:22:47;12.10;;;6.72;;
73264;SDS011;61493;51.008;14.088;2023-02-28T13:27:47;14.00;;;6.82;;
73264;SDS011;61493;51.008;14.088;2023-02-28T13:35:48;11.02;;;6.78;;
73264;SDS011;61493;51.008;14.088;2023-02-28T13:38:24;13.00;;;7.55;;
73264;SDS011;61493;51.008;14.088;2023-02-28T13:40:49;10.88;;;6.85;;
73264;SDS011;61493;51.008;14.088;2023-02-28T13:43:16;11.95;;;6.82;;
73264;SDS011;61493;51.008;14.088;2023-02-28T13:45:44;11.82;;;7.18;;
73264;SDS011;61493;51.008;14.088;2023-02-28T13:48:27;10.65;;;6.70;;
73264;SDS011;61493;51.008;14.088;2023-02-28T13:50:52;16.65;;;6.22;;
73264;SDS011;61493;51.008;14.088;2023-02-28T13:53:28;12.68;;;6.78;;
73264;SDS011;61493;51.008;14.088;2023-02-28T13:58:46;11.82;;;6.72;;
73264;SDS011;61493;51.008;14.088;2023-02-28T14:06:46;15.00;;;7.80;;
73264;SDS011;61493;51.008;14.088;2023-02-28T14:09:23;10.05;;;6.78;;
73264;SDS011;61493;51.008;14.088;2023-02-28T14:11:50;15.07;;;7.63;;
73264;SDS011;61493;51.008;14.088;2023-02-28T14:17:06;12.73;;;7.95;;
73264;SDS011;61493;51.008;14.088;2023-02-28T14:19:33;12.75;;;7.75;;
73264;SDS011;61493;51.008;14.088;2023-02-28T14:24:48;14.88;;;7.95;;
73264;SDS011;61493;51.008;14.088;2023-02-28T14:27:21;15.80;;;8.20;;
73264;SDS011;61493;51.008;14.088;2023-02-28T14:32:59;14.23;;;7.35;;
73264;SDS011;61493;51.008;14.088;2023-02-28T14:35:39;14.10;;;7.30;;
73264;SDS011;61493;51.008;14.088;2023-02-28T14:38:07;12.93;;;6.93;;
73264;SDS011;61493;51.008;14.088;2023-02-28T14:40:38;13.88;;;6.75;;
73264;SDS011;61493;51.008;14.088;2023-02-28T14:43:19;13.95;;;7.97;;
73264;SDS011;61493;51.008;14.088;2023-02-28T14:45:48;13.03;;;6.43;;
73264;SDS011;61493;51.008;14.088;2023-02-28T14:48:15;17.63;;;7.03;;
73264;SDS011;61493;51.008;14.088;2023-02-28T14:50:40;14.63;;;6.43;;
73264;SDS011;61493;51.008;14.088;2023-02-28T14:53:15;14.13;;;6.90;;
73264;SDS011;61493;51.008;14.088;2023-02-28T14:55:45;13.60;;;7.13;;
73264;SDS011;61493;51.008;14.088;2023-02-28T14:58:29;13.17;;;7.23;;
73264;SDS011;61493;51.008;14.088;2023-02-28T15:00:56;18.42;;;8.20;;
73264;SDS011;61493;51.008;14.088;2023-02-28T15:06:03;12.00;;;6.70;;
73264;SDS011;61493;51.008;14.088;2023-02-28T15:08:29;12.45;;;6.60;;
73264;SDS011;61493;51.008;14.088;2023-02-28T15:11:00;13.67;;;7.27;;
73264;SDS011;61493;51.008;14.088;2023-02-28T15:13:44;10.70;;;6.10;;
73264;SDS011;61493;51.008;14.088;2023-02-28T15:18:45;14.30;;;6.83;;
73264;SDS011;61493;51.008;14.088;2023-02-28T15:21:12;15.53;;;6.50;;
73264;SDS011;61493;51.008;14.088;2023-02-28T15:23:38;12.10;;;6.10;;
73264;SDS011;61493;51.008;14.088;2023-02-28T15:26:10;10.60;;;7.00;;
73264;SDS011;61493;51.008;14.088;2023-02-28T15:28:37;13.10;;;7.67;;
73264;SDS011;61493;51.008;14.088;2023-02-28T15:31:03;11.17;;;7.10;;
73264;SDS011;61493;51.008;14.088;2023-02-28T15:33:47;13.23;;;6.80;;
73264;SDS011;61493;51.008;14.088;2023-02-28T15:36:19;11.93;;;7.30;;
73264;SDS011;61493;51.008;14.088;2023-02-28T15:38:57;12.27;;;6.60;;
73264;SDS011;61493;51.008;14.088;2023-02-28T15:41:29;14.87;;;6.60;;
73264;SDS011;61493;51.008;14.088;2023-02-28T15:44:22;13.05;;;6.55;;
73264;SDS011;61493;51.008;14.088;2023-02-28T15:49:20;13.60;;;6.90;;
73264;SDS011;61493;51.008;14.088;2023-02-28T15:51:46;10.77;;;6.67;;
73264;SDS011;61493;51.008;14.088;2023-02-28T15:54:23;13.83;;;7.90;;
73264;SDS011;61493;51.008;14.088;2023-02-28T15:56:52;12.10;;;6.53;;
73264;SDS011;61493;51.008;14.088;2023-02-28T15:59:23;13.53;;;7.53;;
73264;SDS011;61493;51.008;14.088;2023-02-28T16:02:02;13.20;;;6.37;;
73264;SDS011;61493;51.008;14.088;2023-02-28T16:04:29;15.57;;;6.63;;
73264;SDS011;61493;51.008;14.088;2023-02-28T16:09:25;16.67;;;7.53;;
73264;SDS011;61493;51.008;14.088;2023-02-28T16:11:52;16.13;;;7.27;;
73264;SDS011;61493;51.008;14.088;2023-02-28T16:14:18;12.03;;;6.87;;
73264;SDS011;61493;51.008;14.088;2023-02-28T16:16:46;15.43;;;7.07;;
73264;SDS011;61493;51.008;14.088;2023-02-28T16:19:11;12.37;;;6.87;;
73264;SDS011;61493;51.008;14.088;2023-02-28T16:21:40;13.67;;;6.63;;